CDT,Max TemperatureF,Mean TemperatureF,Min TemperatureF,Max Dew PointF,MeanDew PointF,Min DewpointF,Max Humidity, Mean Humidity, Min Humidity, Max Sea Level PressureIn, Mean Sea Level PressureIn, Min Sea Level PressureIn, Max VisibilityMiles, Mean VisibilityMiles, Min VisibilityMiles, Max Wind SpeedMPH, Mean Wind SpeedMPH, Max Gust SpeedMPH,PrecipitationIn, CloudCover, Events, WindDirDegrees
2013-3-1,30,29,28,25,23,21,82,76,69,30.25,30.21,30.18,10,10,9,13,10,21,0.00,8,,321
2013-3-2,35,30,26,19,18,15,75,66,44,30.28,30.26,30.24,10,10,10,5,3,,0.00,1,,114
2013-3-3,57,41,25,29,25,20,81,52,32,30.23,30.02,29.78,10,10,10,18,9,25,0.00,1,,146
2013-3-4,64,55,43,45,38,29,83,57,43,29.85,29.69,29.61,10,10,10,20,11,25,0.00,1,,153
2013-3-5,43,36,30,34,25,18,93,65,40,30.34,30.17,29.98,10,9,4,25,16,33,0.06,3,,307
2013-3-6,46,34,23,24,21,18,81,57,35,30.43,30.35,30.27,10,10,10,12,7,18,0.00,0,,10
2013-3-7,63,50,36,31,25,20,73,42,19,30.29,30.22,30.15,10,10,10,13,9,18,0.00,0,,136
2013-3-8,62,52,41,36,33,31,70,49,34,30.26,30.17,30.04,10,10,10,15,11,22,0.00,4,,128
2013-3-9,57,60,52,57,51,34,100,78,42,30.05,29.80,29.69,10,8,2,24,13,32,1.42,7,Thunderstorm,161
2013-3-10,57,42,28,55,42,27,100,91,76,29.96,29.77,29.68,10,7,2,22,13,29,0.69,8,,234
2013-3-11,44,35,27,27,25,19,96,75,40,30.06,29.97,29.90,10,9,4,18,14,25,0.00,5,,274
2013-3-12,55,41,28,28,24,19,82,51,29,30.34,30.20,30.07,10,10,10,18,6,26,0.00,2,,282
2013-3-13,48,38,28,24,18,11,75,47,22,30.49,30.42,30.35,10,10,10,9,5,,0.00,1,,357
2013-3-14,71,52,34,41,32,21,73,47,31,30.37,30.23,30.12,10,10,10,23,10,31,0.00,0,,182
2013-3-15,79,64,51,46,44,42,74,50,29,30.11,29.95,29.80,10,10,10,21,12,30,0.00,0,,206
2013-3-16,73,62,50,48,44,38,64,51,39,29.86,29.81,29.75,10,10,6,16,11,22,0.00,1,,236
2013-3-17,48,44,39,43,40,37,100,89,66,29.89,29.78,29.69,10,5,2,21,13,29,0.08,8,Rain-Thunderstorm,76
2013-3-18,54,47,39,45,40,25,100,87,38,30.07,29.82,29.70,10,5,0,15,5,20,0.00,7,Fog,292
2013-3-19,55,46,36,27,22,16,67,46,22,30.27,30.16,30.06,10,10,10,21,6,16,0.00,1,,59
2013-3-20,46,36,28,29,22,13,93,62,30,30.38,30.28,30.14,10,10,10,16,6,21,0.00,2,,337
2013-3-21,43,37,32,32,24,7,96,71,26,30.12,29.92,29.82,10,7,1,18,12,25,0.19,7,,96
2013-3-22,37,34,32,37,33,30,100,95,87,29.91,29.88,29.84,10,8,3,16,11,21,0.21,8,,77
2013-3-23,39,38,37,39,37,36,100,96,93,29.89,29.81,29.75,5,3,2,14,10,,0.00,8,Rain,71
2013-3-24,32,31,30,30,29,27,100,95,86,29.96,29.84,29.69,10,4,2,22,19,34,0.00,8,Rain-Snow,297
2013-3-25,33,28,23,30,21,18,87,73,56,30.26,30.19,30.10,10,10,9,17,13,24,0.00,6,Snow,298
2013-3-26,44,32,21,23,20,18,93,63,39,30.41,30.36,30.31,10,10,10,12,5,16,0.00,1,,279
2013-3-27,59,44,28,28,24,19,93,48,23,30.32,30.24,30.17,10,10,10,15,10,20,0.00,1,,142
2013-3-28,69,58,48,46,38,30,50,46,40,30.23,30.19,30.14,10,10,10,15,10,24,0.00,4,,183
2013-3-29,68,60,51,54,50,48,94,76,56,30.22,30.17,30.12,10,9,4,13,7,,0.00,6,Rain,121
2013-3-30,68,60,53,55,53,52,94,84,60,30.11,30.01,29.91,10,9,4,23,10,32,0.00,5,Rain,174
2013-3-31,66,58,50,48,43,36,94,56,32,29.99,29.97,29.94,10,10,10,12,8,18,0.00,1,,3